sensor_id;sensor_type;location;lat;lon;timestamp;temperature;humidity
20845;DHT22;10583;49.084;8.646;2023-04-07T00:01:28;7.20;99.90
20845;DHT22;10583;49.084;8.646;2023-04-07T00:03:55;7.20;99.90
20845;DHT22;10583;49.084;8.646;2023-04-07T00:06:23;7.20;99.90
20845;DHT22;10583;49.084;8.646;2023-04-07T00:08:51;7.20;99.90
20845;DHT22;10583;49.084;8.646;2023-04-07T00:11:18;7.20;99.90
20845;DHT22;10583;49.084;8.646;2023-04-07T00:13:45;7.20;99.90
20845;DHT22;10583;49.084;8.646;2023-04-07T00:16:12;7.20;99.90
20845;DHT22;10583;49.084;8.646;2023-04-07T00:18:38;7.20;99.90
20845;DHT22;10583;49.084;8.646;2023-04-07T00:21:05;7.30;99.90
20845;DHT22;10583;49.084;8.646;2023-04-07T00:23:33;7.30;99.90
20845;DHT22;10583;49.084;8.646;2023-04-07T00:26:00;7.30;99.90
20845;DHT22;10583;49.084;8.646;2023-04-07T00:28:27;7.30;99.90
20845;DHT22;10583;49.084;8.646;2023-04-07T00:30:54;7.20;99.90
20845;DHT22;10583;49.084;8.646;2023-04-07T00:33:21;7.30;99.90
20845;DHT22;10583;49.084;8.646;2023-04-07T00:35:47;7.30;99.90
20845;DHT22;10583;49.084;8.646;2023-04-07T00:38:14;7.30;99.90
20845;DHT22;10583;49.084;8.646;2023-04-07T00:40:42;7.30;99.90
20845;DHT22;10583;49.084;8.646;2023-04-07T00:43:10;7.30;99.90
20845;DHT22;10583;49.084;8.646;2023-04-07T00:45:36;7.30;99.90
20845;DHT22;10583;49.084;8.646;2023-04-07T00:48:04;7.30;99.90
20845;DHT22;10583;49.084;8.646;2023-04-07T00:50:30;7.30;99.90
20845;DHT22;10583;49.084;8.646;2023-04-07T00:52:57;7.20;99.90
20845;DHT22;10583;49.084;8.646;2023-04-07T00:55:24;7.30;99.90
20845;DHT22;10583;49.084;8.646;2023-04-07T00:57:52;7.30;99.90
20845;DHT22;10583;49.084;8.646;2023-04-07T01:00:19;7.30;99.90
20845;DHT22;10583;49.084;8.646;2023-04-07T01:02:54;7.30;99.90
20845;DHT22;10583;49.084;8.646;2023-04-07T01:05:27;7.30;99.90
20845;DHT22;10583;49.084;8.646;2023-04-07T01:08:03;7.30;99.90
20845;DHT22;10583;49.084;8.646;2023-04-07T01:10:40;7.30;99.90
20845;DHT22;10583;49.084;8.646;2023-04-07T01:13:14;7.30;99.90
20845;DHT22;10583;49.084;8.646;2023-04-07T01:15:44;7.20;99.90
20845;DHT22;10583;49.084;8.646;2023-04-07T01:18:16;7.20;99.90
20845;DHT22;10583;49.084;8.646;2023-04-07T01:20:48;7.20;99.90
20845;DHT22;10583;49.084;8.646;2023-04-07T01:23:22;7.20;99.90
20845;DHT22;10583;49.084;8.646;2023-04-07T01:26:03;7.10;99.90
20845;DHT22;10583;49.084;8.646;2023-04-07T01:31:43;7.10;99.90
20845;DHT22;10583;49.084;8.646;2023-04-07T01:34:11;7.10;99.90
20845;DHT22;10583;49.084;8.646;2023-04-07T01:36:38;7.10;99.90
20845;DHT22;10583;49.084;8.646;2023-04-07T01:39:06;7.00;99.90
20845;DHT22;10583;49.084;8.646;2023-04-07T01:41:33;7.00;99.90
20845;DHT22;10583;49.084;8.646;2023-04-07T01:44:01;7.00;99.90
20845;DHT22;10583;49.084;8.646;2023-04-07T01:46:28;7.00;99.90
20845;DHT22;10583;49.084;8.646;2023-04-07T01:48:57;7.00;99.90
20845;DHT22;10583;49.084;8.646;2023-04-07T01:51:24;7.00;99.90
20845;DHT22;10583;49.084;8.646;2023-04-07T01:53:52;7.10;99.90
20845;DHT22;10583;49.084;8.646;2023-04-07T01:56:19;7.10;99.90
20845;DHT22;10583;49.084;8.646;2023-04-07T01:58:46;7.10;99.90
20845;DHT22;10583;49.084;8.646;2023-04-07T02:01:13;7.20;99.90
20845;DHT22;10583;49.084;8.646;2023-04-07T02:03:43;7.20;99.90
20845;DHT22;10583;49.084;8.646;2023-04-07T02:06:14;7.20;99.90
20845;DHT22;10583;49.084;8.646;2023-04-07T02:08:49;7.20;99.90
20845;DHT22;10583;49.084;8.646;2023-04-07T02:11:20;7.20;99.90
20845;DHT22;10583;49.084;8.646;2023-04-07T02:13:48;7.20;99.90
20845;DHT22;10583;49.084;8.646;2023-04-07T02:16:17;7.20;99.90
20845;DHT22;10583;49.084;8.646;2023-04-07T02:18:45;7.20;99.90
20845;DHT22;10583;49.084;8.646;2023-04-07T02:21:14;7.20;99.90
20845;DHT22;10583;49.084;8.646;2023-04-07T02:23:41;7.20;99.90
20845;DHT22;10583;49.084;8.646;2023-04-07T02:26:09;7.10;99.90
20845;DHT22;10583;49.084;8.646;2023-04-07T02:28:36;7.10;99.90
20845;DHT22;10583;49.084;8.646;2023-04-07T02:31:02;7.10;99.90
20845;DHT22;10583;49.084;8.646;2023-04-07T02:33:29;7.10;99.90
20845;DHT22;10583;49.084;8.646;2023-04-07T02:35:56;7.10;99.90
20845;DHT22;10583;49.084;8.646;2023-04-07T02:38:24;7.00;99.90
20845;DHT22;10583;49.084;8.646;2023-04-07T02:40:51;7.10;99.90
20845;DHT22;10583;49.084;8.646;2023-04-07T02:43:18;7.00;99.90
20845;DHT22;10583;49.084;8.646;2023-04-07T02:45:45;7.10;99.90
20845;DHT22;10583;49.084;8.646;2023-04-07T02:48:12;7.10;99.90
20845;DHT22;10583;49.084;8.646;2023-04-07T02:50:38;7.10;99.90
20845;DHT22;10583;49.084;8.646;2023-04-07T02:53:06;7.10;99.90
20845;DHT22;10583;49.084;8.646;2023-04-07T02:55:34;7.20;99.90
20845;DHT22;10583;49.084;8.646;2023-04-07T02:58:01;7.20;99.90
20845;DHT22;10583;49.084;8.646;2023-04-07T03:00:28;7.20;99.90
20845;DHT22;10583;49.084;8.646;2023-04-07T03:02:55;7.20;99.90
20845;DHT22;10583;49.084;8.646;2023-04-07T03:05:21;7.20;99.90
20845;DHT22;10583;49.084;8.646;2023-04-07T03:07:48;7.20;99.90
20845;DHT22;10583;49.084;8.646;2023-04-07T03:10:15;7.20;99.90
20845;DHT22;10583;49.084;8.646;2023-04-07T03:12:43;7.20;99.90
20845;DHT22;10583;49.084;8.646;2023-04-07T03:15:10;7.20;99.90
20845;DHT22;10583;49.084;8.646;2023-04-07T03:17:37;7.20;99.90
20845;DHT22;10583;49.084;8.646;2023-04-07T03:20:04;7.20;99.90
20845;DHT22;10583;49.084;8.646;2023-04-07T03:22:32;7.20;99.90
20845;DHT22;10583;49.084;8.646;2023-04-07T03:24:58;7.20;99.90
20845;DHT22;10583;49.084;8.646;2023-04-07T03:27:25;7.10;99.90
20845;DHT22;10583;49.084;8.646;2023-04-07T03:29:53;7.10;99.90
20845;DHT22;10583;49.084;8.646;2023-04-07T03:32:20;7.10;99.90
20845;DHT22;10583;49.084;8.646;2023-04-07T03:34:47;7.10;99.90
20845;DHT22;10583;49.084;8.646;2023-04-07T03:37:13;7.10;99.90
20845;DHT22;10583;49.084;8.646;2023-04-07T03:39:40;7.10;99.90
20845;DHT22;10583;49.084;8.646;2023-04-07T03:42:07;7.10;99.90
20845;DHT22;10583;49.084;8.646;2023-04-07T03:44:34;7.20;99.90
20845;DHT22;10583;49.084;8.646;2023-04-07T03:47:02;7.20;99.90
20845;DHT22;10583;49.084;8.646;2023-04-07T03:49:29;7.10;99.90
20845;DHT22;10583;49.084;8.646;2023-04-07T03:51:56;7.10;99.90
20845;DHT22;10583;49.084;8.646;2023-04-07T03:54:23;7.00;99.90
20845;DHT22;10583;49.084;8.646;2023-04-07T03:56:49;7.00;99.90
20845;DHT22;10583;49.084;8.646;2023-04-07T03:59:17;7.00;99.90
20845;DHT22;10583;49.084;8.646;2023-04-07T04:01:43;7.00;99.90
20845;DHT22;10583;49.084;8.646;2023-04-07T04:04:11;7.00;99.90
20845;DHT22;10583;49.084;8.646;2023-04-07T04:06:38;7.00;99.90
20845;DHT22;10583;49.084;8.646;2023-04-07T04:09:05;7.00;99.90
20845;DHT22;10583;49.084;8.646;2023-04-07T04:11:32;7.00;99.90
20845;DHT22;10583;49.084;8.646;2023-04-07T04:13:58;7.00;99.90
20845;DHT22;10583;49.084;8.646;2023-04-07T04:16:25;6.90;99.90
20845;DHT22;10583;49.084;8.646;2023-04-07T04:18:52;6.80;99.90
20845;DHT22;10583;49.084;8.646;2023-04-07T04:21:20;6.80;99.90
20845;DHT22;10583;49.084;8.646;2023-04-07T04:23:47;6.70;99.90
20845;DHT22;10583;49.084;8.646;2023-04-07T04:26:13;6.60;99.90
20845;DHT22;10583;49.084;8.646;2023-04-07T04:28:40;6.50;99.90
20845;DHT22;10583;49.084;8.646;2023-04-07T04:31:07;6.50;99.90
20845;DHT22;10583;49.084;8.646;2023-04-07T04:33:34;6.50;99.90
20845;DHT22;10583;49.084;8.646;2023-04-07T04:36:00;6.40;99.90
20845;DHT22;10583;49.084;8.646;2023-04-07T04:38:28;6.30;99.90
20845;DHT22;10583;49.084;8.646;2023-04-07T04:40:57;6.30;99.90
20845;DHT22;10583;49.084;8.646;2023-04-07T04:43:24;6.20;99.90
20845;DHT22;10583;49.084;8.646;2023-04-07T04:45:50;6.20;99.90
20845;DHT22;10583;49.084;8.646;2023-04-07T04:48:17;6.20;99.90
20845;DHT22;10583;49.084;8.646;2023-04-07T04:50:44;6.20;99.90
20845;DHT22;10583;49.084;8.646;2023-04-07T04:53:11;6.20;99.90
20845;DHT22;10583;49.084;8.646;2023-04-07T04:55:39;6.20;99.90
20845;DHT22;10583;49.084;8.646;2023-04-07T04:58:08;6.30;99.90
20845;DHT22;10583;49.084;8.646;2023-04-07T05:00:35;6.30;99.90
20845;DHT22;10583;49.084;8.646;2023-04-07T05:03:01;6.30;99.90
20845;DHT22;10583;49.084;8.646;2023-04-07T05:05:28;6.30;99.90
20845;DHT22;10583;49.084;8.646;2023-04-07T05:07:55;6.40;99.90
20845;DHT22;10583;49.084;8.646;2023-04-07T05:10:22;6.40;99.90
20845;DHT22;10583;49.084;8.646;2023-04-07T05:12:50;6.40;99.90
20845;DHT22;10583;49.084;8.646;2023-04-07T05:15:17;6.40;99.90
20845;DHT22;10583;49.084;8.646;2023-04-07T05:17:44;6.50;99.90
20845;DHT22;10583;49.084;8.646;2023-04-07T05:20:14;6.40;99.90
20845;DHT22;10583;49.084;8.646;2023-04-07T05:22:41;6.40;99.90
20845;DHT22;10583;49.084;8.646;2023-04-07T05:25:08;6.40;99.90
20845;DHT22;10583;49.084;8.646;2023-04-07T05:27:35;6.40;99.90
20845;DHT22;10583;49.084;8.646;2023-04-07T05:30:05;6.50;99.90
20845;DHT22;10583;49.084;8.646;2023-04-07T05:32:32;6.50;99.90
20845;DHT22;10583;49.084;8.646;2023-04-07T05:34:59;6.50;99.90
20845;DHT22;10583;49.084;8.646;2023-04-07T05:37:26;6.70;99.90
20845;DHT22;10583;49.084;8.646;2023-04-07T05:39:52;6.80;99.90
20845;DHT22;10583;49.084;8.646;2023-04-07T05:42:19;6.80;99.90
20845;DHT22;10583;49.084;8.646;2023-04-07T05:44:46;6.80;99.90
20845;DHT22;10583;49.084;8.646;2023-04-07T05:47:14;6.80;99.90
20845;DHT22;10583;49.084;8.646;2023-04-07T05:49:40;6.90;99.90
20845;DHT22;10583;49.084;8.646;2023-04-07T05:52:10;7.00;99.90
20845;DHT22;10583;49.084;8.646;2023-04-07T05:54:37;7.00;99.90
20845;DHT22;10583;49.084;8.646;2023-04-07T05:57:04;7.00;99.90
20845;DHT22;10583;49.084;8.646;2023-04-07T05:59:31;7.00;99.90
20845;DHT22;10583;49.084;8.646;2023-04-07T06:01:59;7.00;99.90
20845;DHT22;10583;49.084;8.646;2023-04-07T06:04:27;7.00;99.90
20845;DHT22;10583;49.084;8.646;2023-04-07T06:06:54;7.00;99.90
20845;DHT22;10583;49.084;8.646;2023-04-07T06:09:21;7.00;99.90
20845;DHT22;10583;49.084;8.646;2023-04-07T06:11:48;7.10;99.90
20845;DHT22;10583;49.084;8.646;2023-04-07T06:14:16;7.20;99.90
20845;DHT22;10583;49.084;8.646;2023-04-07T06:16:43;7.20;99.90
20845;DHT22;10583;49.084;8.646;2023-04-07T06:19:10;7.20;99.90
20845;DHT22;10583;49.084;8.646;2023-04-07T06:21:38;7.20;99.90
20845;DHT22;10583;49.084;8.646;2023-04-07T06:24:06;7.20;99.90
20845;DHT22;10583;49.084;8.646;2023-04-07T06:26:33;7.30;99.90
20845;DHT22;10583;49.084;8.646;2023-04-07T06:29:00;7.30;99.90
20845;DHT22;10583;49.084;8.646;2023-04-07T06:31:27;7.30;99.90
20845;DHT22;10583;49.084;8.646;2023-04-07T06:33:54;7.40;99.90
20845;DHT22;10583;49.084;8.646;2023-04-07T06:36:21;7.50;99.90
20845;DHT22;10583;49.084;8.646;2023-04-07T06:38:49;7.60;99.90
20845;DHT22;10583;49.084;8.646;2023-04-07T06:41:16;7.80;99.90
20845;DHT22;10583;49.084;8.646;2023-04-07T06:43:42;8.10;99.90
20845;DHT22;10583;49.084;8.646;2023-04-07T06:46:09;8.40;99.90
20845;DHT22;10583;49.084;8.646;2023-04-07T06:48:36;8.70;99.90
20845;DHT22;10583;49.084;8.646;2023-04-07T06:51:03;8.80;99.90
20845;DHT22;10583;49.084;8.646;2023-04-07T06:53:30;8.90;99.90
20845;DHT22;10583;49.084;8.646;2023-04-07T06:56:05;8.90;99.90
20845;DHT22;10583;49.084;8.646;2023-04-07T06:58:32;8.80;99.90
20845;DHT22;10583;49.084;8.646;2023-04-07T07:00:59;9.10;99.90
20845;DHT22;10583;49.084;8.646;2023-04-07T07:03:26;9.40;99.90
20845;DHT22;10583;49.084;8.646;2023-04-07T07:05:53;9.70;99.90
20845;DHT22;10583;49.084;8.646;2023-04-07T07:08:20;9.90;99.90
20845;DHT22;10583;49.084;8.646;2023-04-07T07:10:47;10.10;99.90
20845;DHT22;10583;49.084;8.646;2023-04-07T07:13:16;10.30;99.90
20845;DHT22;10583;49.084;8.646;2023-04-07T07:15:43;10.50;99.90
20845;DHT22;10583;49.084;8.646;2023-04-07T07:18:10;10.50;99.90
20845;DHT22;10583;49.084;8.646;2023-04-07T07:20:37;10.50;99.90
20845;DHT22;10583;49.084;8.646;2023-04-07T07:23:03;10.60;99.90
20845;DHT22;10583;49.084;8.646;2023-04-07T07:25:30;10.90;99.90
20845;DHT22;10583;49.084;8.646;2023-04-07T07:27:57;10.90;99.90
20845;DHT22;10583;49.084;8.646;2023-04-07T07:30:25;10.90;99.90
20845;DHT22;10583;49.084;8.646;2023-04-07T07:32:52;11.10;99.90
20845;DHT22;10583;49.084;8.646;2023-04-07T07:35:20;11.30;99.90
20845;DHT22;10583;49.084;8.646;2023-04-07T07:37:47;11.30;99.90
20845;DHT22;10583;49.084;8.646;2023-04-07T07:40:14;11.00;99.90
20845;DHT22;10583;49.084;8.646;2023-04-07T07:42:40;10.60;99.90
20845;DHT22;10583;49.084;8.646;2023-04-07T07:45:08;10.40;99.90
20845;DHT22;10583;49.084;8.646;2023-04-07T07:47:36;10.30;99.90
20845;DHT22;10583;49.084;8.646;2023-04-07T07:50:03;10.40;99.90
20845;DHT22;10583;49.084;8.646;2023-04-07T07:52:30;10.60;99.90
20845;DHT22;10583;49.084;8.646;2023-04-07T07:54:56;11.10;99.90
20845;DHT22;10583;49.084;8.646;2023-04-07T07:57:23;11.50;99.90
20845;DHT22;10583;49.084;8.646;2023-04-07T07:59:50;12.00;99.90
20845;DHT22;10583;49.084;8.646;2023-04-07T08:02:16;12.40;99.90
20845;DHT22;10583;49.084;8.646;2023-04-07T08:04:44;12.80;99.90
20845;DHT22;10583;49.084;8.646;2023-04-07T08:07:11;13.10;99.90
20845;DHT22;10583;49.084;8.646;2023-04-07T08:09:38;13.20;99.90
20845;DHT22;10583;49.084;8.646;2023-04-07T08:12:05;13.40;99.90
20845;DHT22;10583;49.084;8.646;2023-04-07T08:14:32;13.60;99.90
20845;DHT22;10583;49.084;8.646;2023-04-07T08:16:58;13.90;99.90
20845;DHT22;10583;49.084;8.646;2023-04-07T08:19:25;13.90;99.90
20845;DHT22;10583;49.084;8.646;2023-04-07T08:21:53;13.80;99.90
20845;DHT22;10583;49.084;8.646;2023-04-07T08:24:19;13.90;99.90
20845;DHT22;10583;49.084;8.646;2023-04-07T08:26:46;14.10;99.90
20845;DHT22;10583;49.084;8.646;2023-04-07T08:29:14;14.20;99.90
20845;DHT22;10583;49.084;8.646;2023-04-07T08:31:40;14.40;99.90
20845;DHT22;10583;49.084;8.646;2023-04-07T08:34:07;14.50;99.90
20845;DHT22;10583;49.084;8.646;2023-04-07T08:36:34;14.50;99.90
20845;DHT22;10583;49.084;8.646;2023-04-07T08:39:02;14.60;99.90
20845;DHT22;10583;49.084;8.646;2023-04-07T08:41:35;15.10;99.90
20845;DHT22;10583;49.084;8.646;2023-04-07T08:44:03;15.50;99.90
20845;DHT22;10583;49.084;8.646;2023-04-07T08:46:29;15.40;99.90
20845;DHT22;10583;49.084;8.646;2023-04-07T08:48:58;15.20;99.90
20845;DHT22;10583;49.084;8.646;2023-04-07T08:51:27;15.20;99.90
20845;DHT22;10583;49.084;8.646;2023-04-07T08:53:59;15.20;99.90
20845;DHT22;10583;49.084;8.646;2023-04-07T08:56:31;15.30;99.90
20845;DHT22;10583;49.084;8.646;2023-04-07T08:58:59;15.50;99.90
20845;DHT22;10583;49.084;8.646;2023-04-07T09:01:25;15.40;99.90
20845;DHT22;10583;49.084;8.646;2023-04-07T09:03:53;14.90;99.90
20845;DHT22;10583;49.084;8.646;2023-04-07T09:06:20;15.10;99.90
20845;DHT22;10583;49.084;8.646;2023-04-07T09:08:46;15.00;99.90
20845;DHT22;10583;49.084;8.646;2023-04-07T09:11:13;14.40;99.90
20845;DHT22;10583;49.084;8.646;2023-04-07T09:13:41;14.90;99.90
20845;DHT22;10583;49.084;8.646;2023-04-07T09:16:08;15.50;99.90
20845;DHT22;10583;49.084;8.646;2023-04-07T09:18:35;15.90;99.90
20845;DHT22;10583;49.084;8.646;2023-04-07T09:21:03;15.90;99.90
20845;DHT22;10583;49.084;8.646;2023-04-07T09:23:33;15.50;99.90
20845;DHT22;10583;49.084;8.646;2023-04-07T09:28:46;16.10;99.90
20845;DHT22;10583;49.084;8.646;2023-04-07T09:31:15;15.80;99.90
20845;DHT22;10583;49.084;8.646;2023-04-07T09:33:42;15.70;99.90
20845;DHT22;10583;49.084;8.646;2023-04-07T09:36:09;16.00;99.90
20845;DHT22;10583;49.084;8.646;2023-04-07T09:38:37;16.60;99.90
20845;DHT22;10583;49.084;8.646;2023-04-07T09:41:06;17.10;99.90
20845;DHT22;10583;49.084;8.646;2023-04-07T09:43:35;17.80;99.90
20845;DHT22;10583;49.084;8.646;2023-04-07T09:46:11;17.50;99.90
20845;DHT22;10583;49.084;8.646;2023-04-07T09:48:38;17.10;99.90
20845;DHT22;10583;49.084;8.646;2023-04-07T09:51:07;16.80;99.90
20845;DHT22;10583;49.084;8.646;2023-04-07T09:53:45;16.30;99.90
20845;DHT22;10583;49.084;8.646;2023-04-07T09:56:14;15.60;99.90
20845;DHT22;10583;49.084;8.646;2023-04-07T09:58:44;15.20;99.90
20845;DHT22;10583;49.084;8.646;2023-04-07T10:01:13;15.10;99.90
20845;DHT22;10583;49.084;8.646;2023-04-07T10:03:41;14.70;99.90
20845;DHT22;10583;49.084;8.646;2023-04-07T10:06:08;14.30;99.90
20845;DHT22;10583;49.084;8.646;2023-04-07T10:08:38;13.80;99.90
20845;DHT22;10583;49.084;8.646;2023-04-07T10:11:06;13.60;99.90
20845;DHT22;10583;49.084;8.646;2023-04-07T10:13:34;13.60;99.90
20845;DHT22;10583;49.084;8.646;2023-04-07T10:16:03;13.40;99.90
20845;DHT22;10583;49.084;8.646;2023-04-07T10:18:33;13.40;99.90
20845;DHT22;10583;49.084;8.646;2023-04-07T10:21:01;13.40;99.90
20845;DHT22;10583;49.084;8.646;2023-04-07T10:26:22;13.50;99.90
20845;DHT22;10583;49.084;8.646;2023-04-07T10:28:52;13.50;99.90
20845;DHT22;10583;49.084;8.646;2023-04-07T10:31:22;13.40;99.90
20845;DHT22;10583;49.084;8.646;2023-04-07T10:33:52;13.50;99.90
20845;DHT22;10583;49.084;8.646;2023-04-07T10:36:20;13.50;99.90
20845;DHT22;10583;49.084;8.646;2023-04-07T10:39:17;13.50;99.90
20845;DHT22;10583;49.084;8.646;2023-04-07T10:41:45;13.50;99.90
20845;DHT22;10583;49.084;8.646;2023-04-07T10:44:44;13.50;99.90
20845;DHT22;10583;49.084;8.646;2023-04-07T10:47:12;13.50;99.90
20845;DHT22;10583;49.084;8.646;2023-04-07T10:50:18;13.60;99.90
20845;DHT22;10583;49.084;8.646;2023-04-07T10:52:46;13.60;99.90
20845;DHT22;10583;49.084;8.646;2023-04-07T10:55:36;13.50;99.90
20845;DHT22;10583;49.084;8.646;2023-04-07T10:58:21;13.80;99.90
20845;DHT22;10583;49.084;8.646;2023-04-07T11:01:18;14.10;99.90
20845;DHT22;10583;49.084;8.646;2023-04-07T11:03:57;14.80;99.90
20845;DHT22;10583;49.084;8.646;2023-04-07T11:06:26;15.00;99.90
20845;DHT22;10583;49.084;8.646;2023-04-07T11:08:54;14.60;99.90
20845;DHT22;10583;49.084;8.646;2023-04-07T11:11:38;14.10;99.90
20845;DHT22;10583;49.084;8.646;2023-04-07T11:14:06;13.80;99.90
20845;DHT22;10583;49.084;8.646;2023-04-07T11:16:41;13.60;99.90
20845;DHT22;10583;49.084;8.646;2023-04-07T11:19:08;13.60;99.90
20845;DHT22;10583;49.084;8.646;2023-04-07T11:21:36;13.50;99.90
20845;DHT22;10583;49.084;8.646;2023-04-07T11:24:03;13.60;99.90
20845;DHT22;10583;49.084;8.646;2023-04-07T11:26:36;13.70;99.90
20845;DHT22;10583;49.084;8.646;2023-04-07T11:29:03;13.80;99.90
20845;DHT22;10583;49.084;8.646;2023-04-07T11:31:30;14.00;99.90
20845;DHT22;10583;49.084;8.646;2023-04-07T11:33:59;14.30;99.90
20845;DHT22;10583;49.084;8.646;2023-04-07T11:36:28;15.10;99.90
20845;DHT22;10583;49.084;8.646;2023-04-07T11:38:57;15.30;99.90
20845;DHT22;10583;49.084;8.646;2023-04-07T11:41:25;15.00;99.90
20845;DHT22;10583;49.084;8.646;2023-04-07T11:44:07;14.90;99.90
20845;DHT22;10583;49.084;8.646;2023-04-07T11:46:34;15.50;99.90
20845;DHT22;10583;49.084;8.646;2023-04-07T11:49:09;16.70;99.90
20845;DHT22;10583;49.084;8.646;2023-04-07T11:51:36;17.20;99.90
20845;DHT22;10583;49.084;8.646;2023-04-07T11:54:05;17.50;99.90
20845;DHT22;10583;49.084;8.646;2023-04-07T11:56:41;17.70;99.90
20845;DHT22;10583;49.084;8.646;2023-04-07T11:59:18;17.50;99.80
20845;DHT22;10583;49.084;8.646;2023-04-07T12:01:47;17.10;99.90
20845;DHT22;10583;49.084;8.646;2023-04-07T12:04:14;16.40;99.90
20845;DHT22;10583;49.084;8.646;2023-04-07T12:06:43;15.80;99.90
20845;DHT22;10583;49.084;8.646;2023-04-07T12:09:25;15.40;99.90
20845;DHT22;10583;49.084;8.646;2023-04-07T12:11:53;14.10;99.90
20845;DHT22;10583;49.084;8.646;2023-04-07T12:14:20;13.30;99.90
20845;DHT22;10583;49.084;8.646;2023-04-07T12:16:46;13.00;99.90
20845;DHT22;10583;49.084;8.646;2023-04-07T12:19:13;12.70;99.90
20845;DHT22;10583;49.084;8.646;2023-04-07T12:21:41;12.50;99.90
20845;DHT22;10583;49.084;8.646;2023-04-07T12:24:08;12.20;99.90
20845;DHT22;10583;49.084;8.646;2023-04-07T12:26:36;12.00;99.90
20845;DHT22;10583;49.084;8.646;2023-04-07T12:29:03;11.90;99.90
20845;DHT22;10583;49.084;8.646;2023-04-07T12:31:30;11.80;99.90
20845;DHT22;10583;49.084;8.646;2023-04-07T12:33:57;11.70;99.90
20845;DHT22;10583;49.084;8.646;2023-04-07T12:36:24;11.70;99.90
20845;DHT22;10583;49.084;8.646;2023-04-07T12:38:52;11.70;99.90
20845;DHT22;10583;49.084;8.646;2023-04-07T12:41:18;11.80;99.90
20845;DHT22;10583;49.084;8.646;2023-04-07T12:43:47;11.70;99.90
20845;DHT22;10583;49.084;8.646;2023-04-07T12:46:14;11.70;99.90
20845;DHT22;10583;49.084;8.646;2023-04-07T12:48:41;11.70;99.90
20845;DHT22;10583;49.084;8.646;2023-04-07T12:51:08;11.90;99.90
20845;DHT22;10583;49.084;8.646;2023-04-07T12:53:35;12.20;99.90
20845;DHT22;10583;49.084;8.646;2023-04-07T12:56:02;12.50;99.90
20845;DHT22;10583;49.084;8.646;2023-04-07T12:58:28;12.70;99.90
20845;DHT22;10583;49.084;8.646;2023-04-07T13:00:56;12.80;99.90
20845;DHT22;10583;49.084;8.646;2023-04-07T13:03:25;12.80;99.90
20845;DHT22;10583;49.084;8.646;2023-04-07T13:05:51;12.80;99.90
20845;DHT22;10583;49.084;8.646;2023-04-07T13:08:19;12.80;99.90
20845;DHT22;10583;49.084;8.646;2023-04-07T13:10:46;12.80;99.90
20845;DHT22;10583;49.084;8.646;2023-04-07T13:13:13;12.80;99.90
20845;DHT22;10583;49.084;8.646;2023-04-07T13:15:40;12.80;99.90
20845;DHT22;10583;49.084;8.646;2023-04-07T13:18:08;12.80;99.90
20845;DHT22;10583;49.084;8.646;2023-04-07T13:20:34;12.90;99.90
20845;DHT22;10583;49.084;8.646;2023-04-07T13:23:02;12.90;99.90
20845;DHT22;10583;49.084;8.646;2023-04-07T13:25:29;12.70;99.90
20845;DHT22;10583;49.084;8.646;2023-04-07T13:27:55;12.70;99.90
20845;DHT22;10583;49.084;8.646;2023-04-07T13:30:24;12.80;99.90
20845;DHT22;10583;49.084;8.646;2023-04-07T13:32:50;12.80;99.90
20845;DHT22;10583;49.084;8.646;2023-04-07T13:35:18;13.00;99.90
20845;DHT22;10583;49.084;8.646;2023-04-07T13:37:46;13.30;99.90
20845;DHT22;10583;49.084;8.646;2023-04-07T13:40:12;13.50;99.90
20845;DHT22;10583;49.084;8.646;2023-04-07T13:42:39;13.60;99.90
20845;DHT22;10583;49.084;8.646;2023-04-07T13:45:07;13.70;99.90
20845;DHT22;10583;49.084;8.646;2023-04-07T13:47:33;13.90;99.90
20845;DHT22;10583;49.084;8.646;2023-04-07T13:50:01;14.10;99.90
20845;DHT22;10583;49.084;8.646;2023-04-07T13:52:30;14.00;99.90
20845;DHT22;10583;49.084;8.646;2023-04-07T13:54:59;14.00;99.90
20845;DHT22;10583;49.084;8.646;2023-04-07T13:57:26;14.00;99.90
20845;DHT22;10583;49.084;8.646;2023-04-07T13:59:53;14.10;99.90
20845;DHT22;10583;49.084;8.646;2023-04-07T14:02:20;14.10;99.90
20845;DHT22;10583;49.084;8.646;2023-04-07T14:04:47;14.10;99.90
20845;DHT22;10583;49.084;8.646;2023-04-07T14:07:13;14.10;99.90
20845;DHT22;10583;49.084;8.646;2023-04-07T14:09:41;14.10;99.90
20845;DHT22;10583;49.084;8.646;2023-04-07T14:12:08;14.10;99.90
20845;DHT22;10583;49.084;8.646;2023-04-07T14:14:35;14.10;99.90
20845;DHT22;10583;49.084;8.646;2023-04-07T14:17:02;14.20;99.90
20845;DHT22;10583;49.084;8.646;2023-04-07T14:19:29;14.20;99.90
20845;DHT22;10583;49.084;8.646;2023-04-07T14:21:57;14.20;99.90
20845;DHT22;10583;49.084;8.646;2023-04-07T14:24:24;14.30;99.90
20845;DHT22;10583;49.084;8.646;2023-04-07T14:26:52;14.40;99.90
20845;DHT22;10583;49.084;8.646;2023-04-07T14:29:19;14.30;99.90
20845;DHT22;10583;49.084;8.646;2023-04-07T14:31:46;14.30;99.90
20845;DHT22;10583;49.084;8.646;2023-04-07T14:34:14;14.30;99.90
20845;DHT22;10583;49.084;8.646;2023-04-07T14:36:41;14.20;99.90
20845;DHT22;10583;49.084;8.646;2023-04-07T14:39:08;14.10;99.90
20845;DHT22;10583;49.084;8.646;2023-04-07T14:41:34;14.00;99.90
20845;DHT22;10583;49.084;8.646;2023-04-07T14:44:03;13.90;99.90
20845;DHT22;10583;49.084;8.646;2023-04-07T14:46:30;13.80;99.90
20845;DHT22;10583;49.084;8.646;2023-04-07T14:48:57;13.80;99.90
20845;DHT22;10583;49.084;8.646;2023-04-07T14:51:24;14.00;99.90
20845;DHT22;10583;49.084;8.646;2023-04-07T14:53:51;14.20;99.90
20845;DHT22;10583;49.084;8.646;2023-04-07T14:56:22;14.30;99.90
20845;DHT22;10583;49.084;8.646;2023-04-07T14:58:49;14.20;99.90
20845;DHT22;10583;49.084;8.646;2023-04-07T15:01:17;14.00;99.90
20845;DHT22;10583;49.084;8.646;2023-04-07T15:03:44;13.80;99.90
20845;DHT22;10583;49.084;8.646;2023-04-07T15:06:12;13.80;99.90
20845;DHT22;10583;49.084;8.646;2023-04-07T15:08:39;13.80;99.90
20845;DHT22;10583;49.084;8.646;2023-04-07T15:11:06;13.80;99.90
20845;DHT22;10583;49.084;8.646;2023-04-07T15:13:35;13.60;99.90
20845;DHT22;10583;49.084;8.646;2023-04-07T15:16:05;13.60;99.90
20845;DHT22;10583;49.084;8.646;2023-04-07T15:18:34;13.60;99.90
20845;DHT22;10583;49.084;8.646;2023-04-07T15:21:00;13.60;99.90
20845;DHT22;10583;49.084;8.646;2023-04-07T15:23:27;13.60;99.90
20845;DHT22;10583;49.084;8.646;2023-04-07T15:25:54;13.70;99.90
20845;DHT22;10583;49.084;8.646;2023-04-07T15:28:22;13.60;99.90
20845;DHT22;10583;49.084;8.646;2023-04-07T15:30:49;13.60;99.90
20845;DHT22;10583;49.084;8.646;2023-04-07T15:33:16;13.40;99.90
20845;DHT22;10583;49.084;8.646;2023-04-07T15:35:44;13.20;99.90
20845;DHT22;10583;49.084;8.646;2023-04-07T15:38:11;13.20;99.90
20845;DHT22;10583;49.084;8.646;2023-04-07T15:40:39;13.20;99.90
20845;DHT22;10583;49.084;8.646;2023-04-07T15:43:06;13.20;99.90
20845;DHT22;10583;49.084;8.646;2023-04-07T15:45:39;13.10;99.90
20845;DHT22;10583;49.084;8.646;2023-04-07T15:48:07;12.90;99.90
20845;DHT22;10583;49.084;8.646;2023-04-07T15:50:34;12.70;99.90
20845;DHT22;10583;49.084;8.646;2023-04-07T15:53:03;12.70;99.90